Time;durP1;ratioP1;P1;durP2;ratioP2;P2;SDS_P1;SDS_P2;PMS_P1;PMS_P2;Temp;Humidity;BMP_temperature;BMP_pressure;BME280_temperature;BME280_humidity;BME280_pressure;Samples;Min_cycle;Max_cycle;Signal;HPM_P1;HPM_P2
2023/07/12 00:00:22;;;;;;;13.98;10.48;;;;;;;21.64;64.74;95181.44;6099159;23;20172;-69
2023/07/12 00:03:07;;;;;;;11.30;9.82;;;;;;;21.61;64.53;95177.50;6109276;23;20175;-69
2023/07/12 00:05:55;;;;;;;10.13;9.23;;;;;;;21.56;65.23;95177.16;6099168;23;20175;-69
2023/07/12 00:08:41;;;;;;;13.15;10.25;;;;;;;21.52;65.72;95173.63;6099340;23;20211;-69
2023/07/12 00:11:28;;;;;;;10.40;9.32;;;;;;;21.48;65.50;95173.66;6099163;23;20255;-69
2023/07/12 00:14:14;;;;;;;10.18;9.25;;;;;;;21.42;65.35;95169.72;6099495;23;20236;-69
2023/07/12 00:17:00;;;;;;;9.65;8.75;;;;;;;21.40;65.61;95163.75;6100820;23;20264;-69
2023/07/12 00:19:46;;;;;;;9.55;8.73;;;;;;;21.36;65.67;95160.19;6101218;23;20247;-69
2023/07/12 00:22:34;;;;;;;10.73;9.60;;;;;;;21.37;65.77;95161.78;6101069;23;20218;-69
2023/07/12 00:25:21;;;;;;;11.85;9.38;;;;;;;21.36;65.52;95160.19;6101038;23;20229;-69
2023/07/12 00:28:20;;;;;;;10.50;9.50;;;;;;;21.35;66.12;95159.41;6110838;23;20175;-69
2023/07/12 00:31:10;;;;;;;10.52;9.52;;;;;;;21.36;66.00;95155.38;6101573;23;20275;-69
2023/07/12 00:33:57;;;;;;;10.73;9.73;;;;;;;21.37;66.17;95156.97;6100945;23;20172;-69
2023/07/12 00:36:43;;;;;;;10.73;9.60;;;;;;;21.35;66.70;95158.59;6100881;23;20296;-69
2023/07/12 00:39:32;;;;;;;10.00;9.07;;;;;;;21.34;66.55;95157.81;6100540;23;20171;-69
2023/07/12 00:42:22;;;;;;;10.70;9.70;;;;;;;21.33;66.13;95150.59;6100883;23;20176;-69
2023/07/12 00:45:11;;;;;;;10.38;9.38;;;;;;;21.34;65.97;95154.22;6110633;23;20197;-69
2023/07/12 00:47:57;;;;;;;10.65;9.75;;;;;;;21.31;66.23;95158.59;6100890;23;20567;-69
2023/07/12 00:50:44;;;;;;;11.15;9.80;;;;;;;21.29;66.37;95158.25;6100463;23;20196;-69
2023/07/12 00:53:35;;;;;;;10.38;9.25;;;;;;;21.29;66.45;95154.66;6100985;23;20255;-69
2023/07/12 00:56:27;;;;;;;10.30;9.23;;;;;;;21.26;66.71;95147.88;6100380;23;20171;-69
2023/07/12 00:59:17;;;;;;;10.20;9.20;;;;;;;21.25;66.44;95146.28;6100422;23;20176;-69
2023/07/12 01:02:04;;;;;;;10.43;9.32;;;;;;;21.24;66.79;95153.13;6100639;23;20180;-69
2023/07/12 01:04:51;;;;;;;9.60;8.63;;;;;;;21.19;67.08;95141.56;6100749;23;20219;-69
2023/07/12 01:07:40;;;;;;;10.02;9.02;;;;;;;21.13;67.68;95142.03;6100642;23;20192;-69
2023/07/12 01:10:26;;;;;;;10.02;9.10;;;;;;;21.10;67.83;95145.69;6110337;23;20196;-69
2023/07/12 01:13:20;;;;;;;10.35;9.30;;;;;;;21.08;67.58;95139.69;6109980;23;20296;-69
2023/07/12 01:16:05;;;;;;;11.07;9.43;;;;;;;20.96;67.88;95137.44;6110369;23;20176;-69
2023/07/12 01:18:52;;;;;;;10.23;9.32;;;;;;;20.95;68.38;95135.03;6109949;23;20180;-69
2023/07/12 01:21:43;;;;;;;10.02;9.13;;;;;;;20.98;68.51;95140.59;6100458;23;20256;-69
2023/07/12 01:24:33;;;;;;;10.65;9.55;;;;;;;20.98;69.00;95142.59;6100141;23;20179;-69
2023/07/12 01:27:23;;;;;;;10.85;9.75;;;;;;;20.95;68.58;95141.44;6100084;23;20270;-69
2023/07/12 01:30:10;;;;;;;10.68;9.68;;;;;;;20.92;69.09;95143.09;6100136;23;20222;-69
2023/07/12 01:32:55;;;;;;;10.10;9.20;;;;;;;20.93;68.68;95143.88;6100404;23;20270;-69
2023/07/12 01:35:42;;;;;;;10.57;9.43;;;;;;;20.92;68.71;95147.91;6100302;23;20180;-69
2023/07/12 01:38:30;;;;;;;10.80;9.80;;;;;;;20.91;68.96;95151.88;6100341;23;20231;-69
2023/07/12 01:41:17;;;;;;;10.70;9.73;;;;;;;20.90;68.51;95150.31;6110129;23;20259;-69
2023/07/12 01:44:03;;;;;;;10.38;9.25;;;;;;;20.90;69.29;95151.09;6100202;23;20188;-69
2023/07/12 01:46:52;;;;;;;10.77;9.70;;;;;;;20.87;69.29;95151.94;6100272;23;20168;-69
2023/07/12 01:49:38;;;;;;;11.43;9.65;;;;;;;20.87;69.22;95156.75;6099844;23;20624;-69
2023/07/12 01:52:24;;;;;;;10.50;9.50;;;;;;;20.88;69.48;95147.16;6109988;23;20172;-69
2023/07/12 01:55:12;;;;;;;11.57;9.77;;;;;;;20.85;69.73;95159.97;6109941;23;20268;-69
2023/07/12 01:57:59;;;;;;;10.95;9.95;;;;;;;20.70;69.84;95152.13;6100084;23;20628;-69
2023/07/12 02:00:45;;;;;;;10.20;9.20;;;;;;;20.61;69.02;95161.03;6100133;23;20228;-69
2023/07/12 02:03:30;;;;;;;10.73;9.63;;;;;;;20.60;69.48;95149.03;6100503;23;20200;-69
2023/07/12 02:06:17;;;;;;;10.50;9.40;;;;;;;20.57;69.29;95158.25;6109651;23;20180;-69
2023/07/12 02:09:25;;;;;;;10.57;9.57;;;;;;;20.52;69.72;95158.72;6099567;23;20251;-69
2023/07/12 02:12:49;;;;;;;11.30;10.15;;;;;;;20.50;69.88;95163.94;5993842;24;20219;-69
2023/07/12 02:16:13;;;;;;;10.63;9.50;;;;;;;20.48;69.82;95179.53;5984214;24;20179;-69
2023/07/12 02:19:36;;;;;;;11.02;9.85;;;;;;;20.49;70.09;95181.16;5984335;24;20177;-69
2023/07/12 02:22:59;;;;;;;10.60;9.43;;;;;;;20.51;70.49;95171.13;5984219;24;20198;-69
2023/07/12 02:26:24;;;;;;;11.10;9.52;;;;;;;20.55;69.76;95173.88;5983915;24;20178;-69
2023/07/12 02:29:48;;;;;;;11.35;9.43;;;;;;;20.55;69.99;95171.09;5993299;24;20275;-69
2023/07/12 02:33:12;;;;;;;11.05;9.85;;;;;;;20.55;69.47;95173.88;5928795;24;20273;-69
2023/07/12 02:36:35;;;;;;;10.73;9.63;;;;;;;20.55;69.64;95173.88;5928509;24;20262;-69
2023/07/12 02:39:59;;;;;;;10.75;9.85;;;;;;;20.54;69.88;95173.09;5928276;24;20180;-69
2023/07/12 02:43:23;;;;;;;10.43;9.40;;;;;;;20.48;70.57;95183.16;5928825;24;20261;-69
2023/07/12 02:46:47;;;;;;;10.98;9.10;;;;;;;20.41;70.91;95189.63;5928603;24;20643;-69
2023/07/12 02:50:11;;;;;;;13.15;9.30;;;;;;;20.35;70.91;95194.06;6034536;23;20212;-69
2023/07/12 02:53:34;;;;;;;10.30;9.40;;;;;;;20.32;70.86;95197.69;6080231;23;20217;-69
2023/07/12 02:56:57;;;;;;;10.40;9.40;;;;;;;20.26;71.06;95198.53;6080591;23;20176;-70
2023/07/12 03:00:21;;;;;;;10.27;9.18;;;;;;;20.16;70.83;95191.81;6070630;23;20597;-69
2023/07/12 03:03:43;;;;;;;9.85;8.93;;;;;;;20.12;70.91;95199.47;6076987;23;20312;-69
2023/07/12 03:07:07;;;;;;;11.55;10.05;;;;;;;20.11;70.56;95201.44;6070665;23;20176;-69
2023/07/12 03:10:05;;;;;;;11.52;9.40;;;;;;;20.09;70.48;95198.28;6080030;23;20196;-69
2023/07/12 03:12:53;;;;;;;10.55;9.40;;;;;;;20.10;70.93;95205.47;6080449;23;20179;-70
2023/07/12 03:15:40;;;;;;;10.18;9.02;;;;;;;20.11;71.32;95204.25;6070630;23;20172;-70
2023/07/12 03:18:26;;;;;;;11.57;9.73;;;;;;;20.11;71.22;95212.63;6070492;23;20630;-70
2023/07/12 03:21:12;;;;;;;10.43;9.52;;;;;;;20.08;70.89;95198.66;6069923;23;20172;-70
2023/07/12 03:24:01;;;;;;;10.88;9.60;;;;;;;20.03;71.56;95205.50;6070819;23;20252;-69
2023/07/12 03:26:48;;;;;;;11.48;8.93;;;;;;;20.01;71.49;95209.91;6070449;23;20305;-70
2023/07/12 03:29:34;;;;;;;9.93;8.88;;;;;;;20.02;71.27;95209.53;6073436;23;20280;-70
2023/07/12 03:32:21;;;;;;;11.00;9.90;;;;;;;20.03;71.75;95218.72;6109356;23;20585;-69
2023/07/12 03:35:10;;;;;;;10.55;9.55;;;;;;;19.95;71.92;95218.75;6109418;23;20177;-69
2023/07/12 03:37:56;;;;;;;11.07;9.73;;;;;;;19.92;71.65;95224.38;6099207;23;20176;-69
2023/07/12 03:40:42;;;;;;;11.27;9.50;;;;;;;19.94;72.10;95227.59;6108932;23;20668;-69
2023/07/12 03:43:30;;;;;;;11.43;10.30;;;;;;;19.95;72.14;95235.56;6099598;23;20223;-69
2023/07/12 03:46:16;;;;;;;10.80;9.82;;;;;;;19.89;71.47;95236.38;6109325;23;20546;-69
2023/07/12 03:49:03;;;;;;;11.93;10.45;;;;;;;19.83;71.70;95246.44;6099549;23;20549;-69
2023/07/12 03:51:49;;;;;;;12.38;9.63;;;;;;;19.84;72.27;95242.44;6101400;23;20224;-69
2023/07/12 03:54:35;;;;;;;12.05;10.02;;;;;;;19.90;72.24;95238.81;6110846;23;20273;-69
2023/07/12 03:57:21;;;;;;;11.65;10.43;;;;;;;19.94;72.28;95242.38;6101343;23;20455;-69
2023/07/12 04:00:13;;;;;;;11.80;10.20;;;;;;;19.98;72.79;95252.75;6111042;23;20176;-69
2023/07/12 04:02:59;;;;;;;11.88;10.52;;;;;;;20.00;72.58;95244.72;6110677;23;20187;-69
2023/07/12 04:05:50;;;;;;;13.85;10.80;;;;;;;19.97;72.67;95229.53;6111078;23;20179;-69
2023/07/12 04:08:36;;;;;;;13.18;10.40;;;;;;;19.99;73.28;95229.94;6101232;23;20256;-69
2023/07/12 04:11:27;;;;;;;12.50;10.55;;;;;;;20.01;72.23;95235.13;6101123;23;20191;-69
2023/07/12 04:14:13;;;;;;;11.48;10.32;;;;;;;20.06;72.57;95237.50;6100836;23;20200;-69
2023/07/12 04:17:01;;;;;;;11.80;10.63;;;;;;;20.08;72.91;95230.28;6100815;23;20175;-69
2023/07/12 04:19:47;;;;;;;10.93;9.88;;;;;;;20.14;73.49;95222.22;6100843;23;20172;-69
2023/07/12 04:22:32;;;;;;;11.57;10.38;;;;;;;20.13;72.84;95223.44;6101095;23;20600;-69
2023/07/12 04:25:19;;;;;;;14.57;11.70;;;;;;;20.09;73.29;95226.28;6101141;23;20176;-69
2023/07/12 04:28:05;;;;;;;12.07;10.88;;;;;;;20.10;72.81;95229.88;6110801;23;20230;-70
2023/07/12 04:30:51;;;;;;;11.88;10.60;;;;;;;20.17;72.48;95224.22;6100579;23;20219;-70
2023/07/12 04:33:39;;;;;;;12.80;10.60;;;;;;;20.20;72.07;95227.00;6110466;23;20300;-70
2023/07/12 04:36:27;;;;;;;11.85;10.73;;;;;;;20.25;72.13;95228.53;6105884;23;20188;-70
2023/07/12 04:39:15;;;;;;;12.45;9.82;;;;;;;20.29;72.79;95232.09;6100858;23;20179;-69
2023/07/12 04:42:00;;;;;;;11.50;10.35;;;;;;;20.34;72.46;95228.09;6110735;23;20175;-70
2023/07/12 04:44:47;;;;;;;11.88;10.82;;;;;;;20.36;72.26;95240.47;6100855;23;20168;-69
2023/07/12 04:47:33;;;;;;;12.10;10.57;;;;;;;20.38;72.59;95237.25;6100799;23;20312;-69
2023/07/12 04:50:21;;;;;;;11.55;10.55;;;;;;;20.38;71.91;95245.66;6100719;23;20195;-70
2023/07/12 04:53:07;;;;;;;12.23;10.88;;;;;;;20.38;71.98;95246.47;6100838;23;20572;-70
2023/07/12 04:55:55;;;;;;;12.52;11.38;;;;;;;20.42;72.31;95249.22;6100518;23;20184;-69
2023/07/12 04:58:40;;;;;;;12.57;11.25;;;;;;;20.46;71.27;95252.00;6100622;23;20207;-69
2023/07/12 05:01:28;;;;;;;13.88;12.43;;;;;;;20.51;70.92;95252.38;6100495;23;20171;-69
2023/07/12 05:04:15;;;;;;;14.15;12.70;;;;;;;20.60;70.61;95244.31;6100343;23;20259;-69
2023/07/12 05:07:02;;;;;;;13.57;12.18;;;;;;;20.63;71.29;95234.28;6110176;23;20172;-69
2023/07/12 05:09:47;;;;;;;15.77;12.50;;;;;;;20.66;71.52;95233.44;6100381;23;20192;-69
2023/07/12 05:12:35;;;;;;;16.58;14.77;;;;;;;20.71;71.68;95233.00;6110459;23;20232;-69
2023/07/12 05:15:21;;;;;;;16.55;14.88;;;;;;;20.76;71.81;95229.72;6105748;23;20191;-69
2023/07/12 05:18:07;;;;;;;18.38;14.90;;;;;;;20.80;71.56;95232.50;6110280;23;20174;-69
2023/07/12 05:20:56;;;;;;;15.60;14.10;;;;;;;20.84;71.35;95234.09;6100540;23;20179;-69
2023/07/12 05:23:44;;;;;;;15.85;14.45;;;;;;;20.87;71.50;95230.41;6110269;23;20236;-69
2023/07/12 05:26:29;;;;;;;14.73;13.43;;;;;;;20.90;70.08;95228.81;6110257;23;20179;-69
2023/07/12 05:29:18;;;;;;;16.92;13.70;;;;;;;20.96;69.48;95231.97;6100069;23;20176;-69
2023/07/12 05:32:05;;;;;;;14.65;13.25;;;;;;;21.00;70.14;95236.31;6110184;23;20187;-69
2023/07/12 05:34:52;;;;;;;14.65;13.30;;;;;;;21.07;70.33;95241.06;6100078;23;20592;-69
2023/07/12 05:37:40;;;;;;;15.15;13.80;;;;;;;21.12;70.30;95238.56;6100255;23;20184;-69
2023/07/12 05:40:29;;;;;;;14.43;12.98;;;;;;;21.18;69.53;95240.94;6110168;23;20232;-69
2023/07/12 05:43:22;;;;;;;13.45;12.07;;;;;;;21.22;69.09;95238.88;6100296;23;20180;-69
2023/07/12 05:46:08;;;;;;;12.95;11.75;;;;;;;21.28;68.56;95240.81;6110038;23;20577;-69
2023/07/12 05:48:54;;;;;;;12.75;11.50;;;;;;;21.31;68.31;95231.53;6110019;23;20183;-69
2023/07/12 05:51:41;;;;;;;13.63;12.43;;;;;;;21.33;68.54;95239.56;6100255;23;20195;-70
2023/07/12 05:54:26;;;;;;;13.25;11.75;;;;;;;21.38;68.70;95245.53;6100121;23;20175;-70
2023/07/12 05:57:14;;;;;;;13.88;12.00;;;;;;;21.42;68.73;95258.72;6099803;23;20179;-70
2023/07/12 06:00:01;;;;;;;12.50;11.40;;;;;;;21.45;68.72;95252.28;6100130;23;20267;-70
2023/07/12 06:02:48;;;;;;;13.13;11.82;;;;;;;21.47;67.92;95259.06;6109916;23;20219;-70
2023/07/12 06:05:34;;;;;;;13.55;12.32;;;;;;;21.52;67.59;95257.78;6109953;23;20235;-70
2023/07/12 06:08:21;;;;;;;13.65;12.45;;;;;;;21.55;67.56;95260.56;6109881;23;20167;-70
2023/07/12 06:11:07;;;;;;;12.73;11.52;;;;;;;21.60;67.20;95262.88;6109363;23;20243;-70
2023/07/12 06:13:55;;;;;;;12.40;11.20;;;;;;;21.65;67.70;95261.66;6109466;23;20176;-70
2023/07/12 06:16:41;;;;;;;13.30;12.10;;;;;;;21.69;67.69;95261.59;6100020;23;20456;-69
2023/07/12 06:19:28;;;;;;;15.13;13.88;;;;;;;21.74;68.15;95264.72;6099692;23;20178;-69
2023/07/12 06:22:13;;;;;;;14.77;13.52;;;;;;;21.79;67.02;95267.09;6099574;23;20251;-70
2023/07/12 06:25:00;;;;;;;14.73;13.32;;;;;;;21.84;67.06;95268.63;6109739;23;20259;-69
2023/07/12 06:28:23;;;;;;;14.50;13.00;;;;;;;21.86;67.08;95255.75;6099938;23;20247;-69
2023/07/12 06:31:47;;;;;;;16.77;15.18;;;;;;;21.92;66.64;95253.25;6099378;23;20215;-69
2023/07/12 06:35:11;;;;;;;17.00;14.18;;;;;;;21.96;66.53;95259.63;6099928;23;20180;-69
2023/07/12 06:38:34;;;;;;;15.98;14.38;;;;;;;21.98;66.29;95262.81;6102716;23;20593;-69
2023/07/12 06:41:58;;;;;;;16.92;14.98;;;;;;;22.02;66.41;95259.94;6099814;23;20223;-69
2023/07/12 06:45:22;;;;;;;18.70;14.10;;;;;;;22.07;66.00;95254.66;6099871;23;20235;-69
2023/07/12 06:48:46;;;;;;;14.98;12.75;;;;;;;22.15;65.68;95248.94;6099435;23;20631;-69
2023/07/12 06:52:11;;;;;;;15.00;13.50;;;;;;;22.17;65.41;95258.56;6099719;23;20263;-69
2023/07/12 06:55:35;;;;;;;14.25;12.95;;;;;;;22.22;64.95;95246.84;6109538;23;20179;-69
2023/07/12 06:58:59;;;;;;;14.52;13.20;;;;;;;22.28;65.41;95242.34;6099786;23;20179;-69
2023/07/12 07:02:27;;;;;;;14.95;13.32;;;;;;;22.35;65.77;95247.06;6109553;23;20171;-69
2023/07/12 07:05:51;;;;;;;14.57;13.20;;;;;;;22.43;64.93;95248.53;6109241;23;20172;-69
2023/07/12 07:09:15;;;;;;;14.73;13.27;;;;;;;22.50;64.73;95248.41;6098724;23;20292;-69
2023/07/12 07:12:39;;;;;;;13.70;12.27;;;;;;;22.55;65.09;95261.19;6109387;23;20200;-69
2023/07/12 07:16:03;;;;;;;13.48;12.10;;;;;;;22.58;64.48;95265.94;6099746;23;20621;-69
2023/07/12 07:19:27;;;;;;;15.10;12.18;;;;;;;22.63;64.71;95267.50;6109460;23;20187;-69
2023/07/12 07:22:50;;;;;;;14.00;12.50;;;;;;;22.72;65.01;95268.53;6099299;23;20582;-69
2023/07/12 07:25:38;;;;;;;13.98;12.68;;;;;;;22.86;64.27;95270.31;6111431;23;20179;-69
2023/07/12 07:28:25;;;;;;;13.95;12.52;;;;;;;22.87;63.34;95259.84;6111374;23;20176;-69
2023/07/12 07:31:11;;;;;;;13.93;12.63;;;;;;;22.92;63.92;95259.41;6111856;23;20274;-69
2023/07/12 07:33:58;;;;;;;13.73;12.43;;;;;;;22.93;64.20;95250.53;6101305;23;20167;-69
2023/07/12 07:36:43;;;;;;;15.43;13.13;;;;;;;23.04;65.28;95248.31;6111389;23;20179;-69
2023/07/12 07:39:32;;;;;;;13.57;12.18;;;;;;;23.18;64.56;95243.66;6101590;23;20275;-70
2023/07/12 07:42:19;;;;;;;14.02;12.68;;;;;;;23.24;64.23;95241.91;6110891;23;20256;-69
2023/07/12 07:45:07;;;;;;;14.50;13.00;;;;;;;23.25;64.14;95249.94;6101480;23;20196;-69
2023/07/12 07:47:52;;;;;;;14.82;12.65;;;;;;;23.26;64.54;95262.78;6101275;23;20275;-69
2023/07/12 07:50:39;;;;;;;15.73;12.75;;;;;;;23.37;64.12;95248.50;6111070;23;20298;-69
2023/07/12 07:53:25;;;;;;;14.30;13.10;;;;;;;23.54;64.05;95243.75;6110820;23;20176;-69
2023/07/12 07:56:12;;;;;;;14.85;13.25;;;;;;;23.64;63.43;95239.94;6110822;23;20231;-69
2023/07/12 07:59:01;;;;;;;14.07;12.63;;;;;;;23.73;63.99;95251.41;6101371;23;20222;-69
2023/07/12 08:01:48;;;;;;;15.13;13.23;;;;;;;23.78;63.85;95239.66;6111078;23;20256;-70
2023/07/12 08:04:34;;;;;;;15.75;14.15;;;;;;;23.86;65.28;95251.56;6111128;23;20180;-69
2023/07/12 08:07:21;;;;;;;15.82;14.32;;;;;;;23.93;64.11;95234.50;6110680;23;20457;-69
2023/07/12 08:10:08;;;;;;;18.45;14.05;;;;;;;23.92;64.43;95240.56;6110661;23;20186;-69
2023/07/12 08:12:56;;;;;;;15.82;13.68;;;;;;;24.06;64.06;95247.91;6110656;23;20232;-69
2023/07/12 08:15:45;;;;;;;16.33;14.75;;;;;;;24.07;62.29;95253.09;6100896;23;20227;-69
2023/07/12 08:18:32;;;;;;;16.33;13.38;;;;;;;24.16;63.10;95239.22;6110887;23;20233;-69
2023/07/12 08:21:19;;;;;;;15.45;13.95;;;;;;;24.23;63.49;95255.16;6101212;23;20167;-69
2023/07/12 08:24:06;;;;;;;14.80;13.43;;;;;;;24.21;63.65;95252.78;6110898;23;20176;-69
2023/07/12 08:26:52;;;;;;;14.18;12.77;;;;;;;24.23;64.39;95250.31;6101134;23;20180;-69
2023/07/12 08:29:39;;;;;;;15.10;13.52;;;;;;;24.27;64.48;95244.59;6100859;23;20172;-69
2023/07/12 08:32:27;;;;;;;16.55;12.82;;;;;;;24.33;64.78;95251.31;6100642;23;20215;-69
2023/07/12 08:35:14;;;;;;;14.27;12.80;;;;;;;24.41;66.47;95249.94;6100622;23;20175;-69
2023/07/12 08:38:00;;;;;;;14.68;13.20;;;;;;;24.53;65.45;95256.13;6100967;23;20240;-69
2023/07/12 08:40:50;;;;;;;17.95;16.20;;;;;;;24.64;65.11;95246.16;6101366;23;20171;-69
2023/07/12 08:43:35;;;;;;;13.48;12.05;;;;;;;24.79;63.71;95249.41;6100871;23;20180;-69
2023/07/12 08:46:24;;;;;;;13.30;12.10;;;;;;;24.88;63.59;95251.63;6110634;23;20495;-69
2023/07/12 08:49:13;;;;;;;15.57;12.60;;;;;;;24.88;63.09;95238.31;6101107;23;20249;-69
2023/07/12 08:52:04;;;;;;;15.15;13.50;;;;;;;24.94;63.15;95239.34;6110531;23;20196;-69
2023/07/12 08:54:50;;;;;;;14.68;13.13;;;;;;;25.01;63.30;95241.19;6100385;23;20179;-69
2023/07/12 08:57:41;;;;;;;14.02;12.70;;;;;;;25.23;65.13;95235.81;6100499;23;20172;-69
2023/07/12 09:00:30;;;;;;;13.13;11.90;;;;;;;25.48;63.26;95237.16;6100783;23;20228;-69
2023/07/12 09:03:17;;;;;;;14.55;12.93;;;;;;;25.75;65.15;95226.28;6110575;23;20176;-69
2023/07/12 09:06:11;;;;;;;13.50;12.13;;;;;;;25.98;63.50;95227.25;6100822;23;20564;-69
2023/07/12 09:08:58;;;;;;;13.23;11.82;;;;;;;26.23;61.06;95223.66;6100664;23;20183;-69
2023/07/12 09:11:44;;;;;;;13.43;12.00;;;;;;;26.29;63.13;95219.81;6100458;23;20195;-69
2023/07/12 09:14:30;;;;;;;13.48;12.15;;;;;;;26.35;61.18;95211.56;6110369;23;20255;-69
2023/07/12 09:17:24;;;;;;;14.32;12.95;;;;;;;26.47;64.02;95201.50;6110377;23;20608;-69
2023/07/12 09:20:26;;;;;;;15.00;12.38;;;;;;;26.63;66.29;95202.19;6100498;23;20176;-69
2023/07/12 09:23:15;;;;;;;12.73;11.40;;;;;;;26.78;61.97;95199.66;6100272;23;20242;-69
2023/07/12 09:26:05;;;;;;;11.85;10.70;;;;;;;26.88;59.02;95189.22;6110238;23;20577;-69
2023/07/12 09:28:52;;;;;;;11.93;10.80;;;;;;;27.10;59.52;95194.94;6100128;23;20179;-69
2023/07/12 09:31:41;;;;;;;10.18;9.20;;;;;;;27.01;54.43;95194.84;6101008;23;20541;-69
2023/07/12 09:34:35;;;;;;;10.57;9.45;;;;;;;26.95;53.80;95196.69;6100341;23;20228;-69
2023/07/12 09:37:23;;;;;;;13.32;9.77;;;;;;;26.95;56.72;95180.50;6110065;23;20172;-69
2023/07/12 09:40:16;;;;;;;10.00;9.02;;;;;;;27.09;55.17;95193.38;6100052;23;20171;-69
2023/07/12 09:43:04;;;;;;;10.65;9.75;;;;;;;27.18;54.74;95184.97;6100312;23;20614;-69
2023/07/12 09:45:59;;;;;;;9.88;8.93;;;;;;;27.29;51.40;95190.25;6110102;23;20249;-69
2023/07/12 09:48:50;;;;;;;9.93;8.93;;;;;;;27.36;51.67;95187.16;6109724;23;20175;-69
2023/07/12 09:51:42;;;;;;;10.25;8.75;;;;;;;27.44;51.06;95193.34;6109987;23;20271;-69
2023/07/12 09:54:40;;;;;;;9.50;8.48;;;;;;;27.59;51.50;95183.84;6100159;23;20227;-69
2023/07/12 09:57:39;;;;;;;9.80;8.43;;;;;;;27.82;52.14;95187.50;6100212;23;20625;-69
2023/07/12 10:00:30;;;;;;;8.93;7.95;;;;;;;27.96;45.67;95186.16;6100262;23;20235;-69
2023/07/12 10:03:19;;;;;;;10.88;8.05;;;;;;;28.01;47.69;95180.69;6109563;23;20172;-69
2023/07/12 10:06:13;;;;;;;9.60;8.55;;;;;;;28.14;47.61;95176.94;6100192;23;20239;-69
2023/07/12 10:09:04;;;;;;;9.45;8.45;;;;;;;28.27;45.62;95180.47;6109501;23;20253;-69
2023/07/12 10:11:56;;;;;;;9.60;8.65;;;;;;;28.31;47.83;95176.22;6100026;23;20284;-69
2023/07/12 10:14:44;;;;;;;10.38;8.80;;;;;;;28.40;48.37;95174.75;6109429;23;20171;-69
2023/07/12 10:17:33;;;;;;;8.80;7.90;;;;;;;28.46;47.72;95176.47;6099921;23;20175;-69
2023/07/12 10:20:23;;;;;;;9.07;8.27;;;;;;;28.57;48.75;95163.91;6099997;23;20220;-69
2023/07/12 10:23:12;;;;;;;9.73;8.35;;;;;;;28.72;47.37;95157.19;6099687;23;20179;-69
2023/07/12 10:26:00;;;;;;;9.05;8.25;;;;;;;28.84;46.51;95166.03;6099968;23;20179;-69
2023/07/12 10:28:51;;;;;;;10.00;8.10;;;;;;;28.95;46.23;95172.81;6099671;23;20164;-69
2023/07/12 10:31:43;;;;;;;9.43;8.30;;;;;;;29.04;46.21;95172.06;6099306;23;20223;-69
2023/07/12 10:34:32;;;;;;;8.20;7.60;;;;;;;29.13;46.96;95169.22;6099945;23;20179;-69
2023/07/12 10:37:22;;;;;;;9.02;8.13;;;;;;;29.17;47.90;95163.41;6109665;23;20231;-68
2023/07/12 10:40:15;;;;;;;8.43;7.72;;;;;;;29.31;46.55;95156.31;6109313;23;20227;-68
2023/07/12 10:43:04;;;;;;;9.07;8.20;;;;;;;29.31;44.11;95148.56;6109654;23;20171;-68
2023/07/12 10:45:52;;;;;;;8.88;8.05;;;;;;;29.29;43.83;95161.66;6099779;23;20589;-68
2023/07/12 10:48:46;;;;;;;8.50;7.57;;;;;;;29.33;43.51;95154.53;6109545;23;20236;-68
2023/07/12 10:51:37;;;;;;;8.63;7.82;;;;;;;29.39;46.36;95146.97;6109404;23;20208;-69
2023/07/12 10:54:39;;;;;;;8.98;8.07;;;;;;;29.59;46.50;95151.41;6109683;23;20260;-69
2023/07/12 10:57:28;;;;;;;8.05;7.35;;;;;;;29.64;46.02;95139.41;6109488;23;20172;-68
2023/07/12 11:00:29;;;;;;;7.43;6.82;;;;;;;29.69;41.25;95135.91;6099270;23;20179;-69
2023/07/12 11:03:23;;;;;;;8.68;7.60;;;;;;;29.64;41.45;95139.41;6109536;23;20189;-69
2023/07/12 11:06:27;;;;;;;8.15;7.43;;;;;;;29.63;43.91;95138.63;6099691;23;20182;-69
2023/07/12 11:09:14;;;;;;;7.95;7.18;;;;;;;29.71;41.69;95154.06;6109514;23;20568;-69
2023/07/12 11:12:06;;;;;;;9.95;7.10;;;;;;;29.70;41.69;95143.97;6099600;23;20199;-69
2023/07/12 11:14:54;;;;;;;7.97;7.28;;;;;;;29.76;43.31;95134.78;6099609;23;20171;-69
2023/07/12 11:17:52;;;;;;;8.63;7.72;;;;;;;29.89;43.26;95127.66;6099716;23;20254;-68
2023/07/12 11:20:57;;;;;;;10.52;7.68;;;;;;;29.99;42.84;95131.22;6099677;23;20251;-68
2023/07/12 11:23:52;;;;;;;7.85;7.15;;;;;;;30.06;42.38;95130.09;6099329;23;20176;-69
2023/07/12 11:26:54;;;;;;;8.88;8.02;;;;;;;30.15;41.68;95124.41;6107727;23;20195;-69
2023/07/12 11:29:47;;;;;;;7.63;7.00;;;;;;;30.21;41.12;95119.63;6099380;23;20176;-69
2023/07/12 11:32:37;;;;;;;7.57;6.80;;;;;;;30.25;41.59;95116.63;6099206;23;20255;-69
2023/07/12 11:35:29;;;;;;;7.00;6.32;;;;;;;30.29;42.45;95111.56;6109428;23;20271;-69
2023/07/12 11:38:19;;;;;;;7.55;6.95;;;;;;;30.31;41.25;95106.97;6099440;23;20649;-69
2023/07/12 11:41:15;;;;;;;7.32;6.63;;;;;;;30.25;42.38;95097.53;6099270;23;20171;-69
2023/07/12 11:44:03;;;;;;;10.50;7.45;;;;;;;30.32;43.99;95096.34;6109297;23;20179;-69
2023/07/12 11:46:50;;;;;;;7.82;7.03;;;;;;;30.32;41.30;95104.91;6099606;23;20176;-69
2023/07/12 11:49:40;;;;;;;8.70;7.80;;;;;;;30.30;42.71;95096.06;6099342;23;20521;-69
2023/07/12 11:52:26;;;;;;;8.32;7.63;;;;;;;30.09;43.67;95095.81;6099421;23;20199;-69
2023/07/12 11:55:18;;;;;;;8.52;7.57;;;;;;;29.97;43.27;95093.97;6099220;23;20179;-69
2023/07/12 11:58:14;;;;;;;9.15;8.25;;;;;;;29.97;46.55;95091.91;6109271;23;20172;-69
2023/07/12 12:01:00;;;;;;;8.45;7.70;;;;;;;30.12;43.95;95080.63;6099675;23;20187;-69
2023/07/12 12:03:49;;;;;;;8.95;8.05;;;;;;;30.22;44.03;95075.72;6099521;23;20176;-69
2023/07/12 12:06:34;;;;;;;9.23;8.43;;;;;;;30.39;45.82;95074.06;6099615;23;20195;-69
2023/07/12 12:09:25;;;;;;;9.38;8.48;;;;;;;30.52;45.55;95070.19;6099456;23;20215;-69
2023/07/12 12:12:19;;;;;;;9.55;8.65;;;;;;;30.62;43.74;95061.09;6100508;23;20195;-69
2023/07/12 12:15:18;;;;;;;9.52;8.55;;;;;;;30.78;46.45;95053.41;6111012;23;20297;-69
2023/07/12 12:18:06;;;;;;;8.45;7.75;;;;;;;30.81;42.79;95049.59;6110601;23;20176;-69
2023/07/12 12:20:53;;;;;;;8.70;7.80;;;;;;;30.82;42.98;95040.56;6110957;23;20588;-69
2023/07/12 12:23:42;;;;;;;8.80;8.00;;;;;;;30.92;40.73;95059.16;6101200;23;20175;-69
2023/07/12 12:26:28;;;;;;;9.32;8.32;;;;;;;30.93;40.09;95057.09;6101147;23;20468;-69
2023/07/12 12:29:17;;;;;;;10.45;8.45;;;;;;;30.96;40.33;95043.94;6101065;23;20175;-69
2023/07/12 12:32:06;;;;;;;9.55;8.52;;;;;;;30.92;41.07;95053.44;6110706;23;20680;-69
2023/07/12 12:34:54;;;;;;;9.23;8.35;;;;;;;31.01;40.33;95044.06;6101025;23;20175;-69
2023/07/12 12:37:40;;;;;;;8.35;7.65;;;;;;;31.03;40.13;95032.16;6100655;23;20171;-69
2023/07/12 12:40:27;;;;;;;8.05;7.35;;;;;;;31.04;42.70;95040.22;6101034;23;20176;-69
2023/07/12 12:43:18;;;;;;;8.07;7.38;;;;;;;31.05;40.22;95044.66;6100579;23;20232;-69
2023/07/12 12:46:11;;;;;;;7.22;6.63;;;;;;;31.07;39.78;95042.09;6110682;23;20183;-69
2023/07/12 12:48:58;;;;;;;8.07;7.38;;;;;;;31.17;39.26;95051.34;6100556;23;20175;-69
2023/07/12 12:51:45;;;;;;;9.18;8.10;;;;;;;31.09;37.85;95050.94;6100494;23;20255;-69
2023/07/12 12:54:31;;;;;;;8.27;7.47;;;;;;;31.10;39.01;95043.97;6100809;23;20176;-69
2023/07/12 12:57:16;;;;;;;9.98;8.98;;;;;;;31.18;40.35;95042.28;6110588;23;20199;-69
2023/07/12 13:00:03;;;;;;;8.95;8.13;;;;;;;31.25;40.52;95046.03;6100405;23;20176;-69
2023/07/12 13:02:50;;;;;;;10.05;9.25;;;;;;;31.28;41.74;95045.84;6100772;23;20637;-69
2023/07/12 13:05:37;;;;;;;9.52;8.50;;;;;;;31.38;40.24;95053.06;6100691;23;20199;-69
2023/07/12 13:08:23;;;;;;;9.75;8.73;;;;;;;31.47;39.98;95045.69;6100192;23;20175;-69
2023/07/12 13:11:08;;;;;;;9.32;8.52;;;;;;;31.42;39.18;95058.56;6100756;23;20199;-69
2023/07/12 13:13:55;;;;;;;8.88;8.07;;;;;;;31.42;40.59;95037.84;6100251;23;20486;-69
2023/07/12 13:16:41;;;;;;;9.15;8.20;;;;;;;31.44;41.17;95052.38;6100512;23;20183;-69
2023/07/12 13:19:28;;;;;;;9.32;8.48;;;;;;;31.46;41.16;95049.81;6100155;23;20176;-69
2023/07/12 13:22:19;;;;;;;8.60;7.90;;;;;;;31.51;41.89;95046.28;6100028;23;20251;-68